sensor_id;sensor_type;location;lat;lon;timestamp;P1;durP1;ratioP1;P2;durP2;ratioP2
79410;SDS011;69635;50.964;6.948;2023-11-21T00:00:20;10.80;;;4.73;;
79410;SDS011;69635;50.964;6.948;2023-11-21T00:02:45;9.90;;;5.13;;
79410;SDS011;69635;50.964;6.948;2023-11-21T00:05:12;11.77;;;5.70;;
79410;SDS011;69635;50.964;6.948;2023-11-21T00:07:39;11.40;;;5.47;;
79410;SDS011;69635;50.964;6.948;2023-11-21T00:10:04;9.63;;;5.82;;
79410;SDS011;69635;50.964;6.948;2023-11-21T00:12:30;12.10;;;5.70;;
79410;SDS011;69635;50.964;6.948;2023-11-21T00:14:56;13.48;;;6.45;;
79410;SDS011;69635;50.964;6.948;2023-11-21T00:17:21;17.17;;;6.40;;
79410;SDS011;69635;50.964;6.948;2023-11-21T00:19:46;11.43;;;6.07;;
79410;SDS011;69635;50.964;6.948;2023-11-21T00:22:12;15.57;;;7.00;;
79410;SDS011;69635;50.964;6.948;2023-11-21T00:24:37;15.43;;;6.15;;
79410;SDS011;69635;50.964;6.948;2023-11-21T00:27:02;13.03;;;6.83;;
79410;SDS011;69635;50.964;6.948;2023-11-21T00:29:28;13.68;;;6.47;;
79410;SDS011;69635;50.964;6.948;2023-11-21T00:31:53;11.30;;;5.80;;
79410;SDS011;69635;50.964;6.948;2023-11-21T00:34:18;14.43;;;7.43;;
79410;SDS011;69635;50.964;6.948;2023-11-21T00:36:44;14.82;;;6.38;;
79410;SDS011;69635;50.964;6.948;2023-11-21T00:39:09;10.40;;;4.63;;
79410;SDS011;69635;50.964;6.948;2023-11-21T00:41:36;18.08;;;6.80;;
79410;SDS011;69635;50.964;6.948;2023-11-21T00:44:02;18.23;;;7.22;;
79410;SDS011;69635;50.964;6.948;2023-11-21T00:46:28;17.42;;;9.02;;
79410;SDS011;69635;50.964;6.948;2023-11-21T00:48:54;17.52;;;6.95;;
79410;SDS011;69635;50.964;6.948;2023-11-21T00:51:19;14.13;;;7.20;;
79410;SDS011;69635;50.964;6.948;2023-11-21T00:53:45;15.15;;;6.15;;
79410;SDS011;69635;50.964;6.948;2023-11-21T00:56:10;16.50;;;7.43;;
79410;SDS011;69635;50.964;6.948;2023-11-21T00:58:35;18.55;;;7.72;;
79410;SDS011;69635;50.964;6.948;2023-11-21T01:01:01;15.47;;;7.03;;
79410;SDS011;69635;50.964;6.948;2023-11-21T01:03:26;15.03;;;8.07;;
79410;SDS011;69635;50.964;6.948;2023-11-21T01:05:51;17.17;;;7.33;;
79410;SDS011;69635;50.964;6.948;2023-11-21T01:08:16;14.77;;;8.00;;
79410;SDS011;69635;50.964;6.948;2023-11-21T01:10:42;15.82;;;7.35;;
79410;SDS011;69635;50.964;6.948;2023-11-21T01:13:07;18.97;;;8.20;;
79410;SDS011;69635;50.964;6.948;2023-11-21T01:15:33;15.07;;;7.53;;
79410;SDS011;69635;50.964;6.948;2023-11-21T01:17:58;19.08;;;8.63;;
79410;SDS011;69635;50.964;6.948;2023-11-21T01:20:23;18.00;;;7.53;;
79410;SDS011;69635;50.964;6.948;2023-11-21T01:22:48;15.23;;;7.27;;
79410;SDS011;69635;50.964;6.948;2023-11-21T01:25:14;18.63;;;7.18;;
79410;SDS011;69635;50.964;6.948;2023-11-21T01:27:39;15.52;;;8.25;;
79410;SDS011;69635;50.964;6.948;2023-11-21T01:30:05;11.67;;;6.50;;
79410;SDS011;69635;50.964;6.948;2023-11-21T01:32:32;12.25;;;6.57;;
79410;SDS011;69635;50.964;6.948;2023-11-21T01:34:57;18.40;;;6.50;;
79410;SDS011;69635;50.964;6.948;2023-11-21T01:37:23;12.23;;;5.73;;
79410;SDS011;69635;50.964;6.948;2023-11-21T01:39:49;12.77;;;4.60;;
79410;SDS011;69635;50.964;6.948;2023-11-21T01:42:14;14.93;;;6.63;;
79410;SDS011;69635;50.964;6.948;2023-11-21T01:44:39;15.13;;;6.57;;
79410;SDS011;69635;50.964;6.948;2023-11-21T01:47:05;21.30;;;7.18;;
79410;SDS011;69635;50.964;6.948;2023-11-21T01:49:34;11.93;;;6.22;;
79410;SDS011;69635;50.964;6.948;2023-11-21T01:51:59;14.93;;;6.30;;
79410;SDS011;69635;50.964;6.948;2023-11-21T01:54:24;11.73;;;6.30;;
79410;SDS011;69635;50.964;6.948;2023-11-21T01:56:50;14.82;;;6.55;;
79410;SDS011;69635;50.964;6.948;2023-11-21T01:59:21;14.60;;;5.80;;
79410;SDS011;69635;50.964;6.948;2023-11-21T02:01:49;11.95;;;5.80;;
79410;SDS011;69635;50.964;6.948;2023-11-21T02:04:15;12.93;;;7.18;;
79410;SDS011;69635;50.964;6.948;2023-11-21T02:06:40;14.45;;;6.22;;
79410;SDS011;69635;50.964;6.948;2023-11-21T02:09:06;13.32;;;7.28;;
79410;SDS011;69635;50.964;6.948;2023-11-21T02:11:31;18.33;;;6.90;;
79410;SDS011;69635;50.964;6.948;2023-11-21T02:13:59;17.83;;;6.93;;
79410;SDS011;69635;50.964;6.948;2023-11-21T02:16:25;15.98;;;8.32;;
79410;SDS011;69635;50.964;6.948;2023-11-21T02:18:52;20.17;;;7.75;;
79410;SDS011;69635;50.964;6.948;2023-11-21T02:21:17;19.08;;;7.50;;
79410;SDS011;69635;50.964;6.948;2023-11-21T02:23:44;15.23;;;7.22;;
79410;SDS011;69635;50.964;6.948;2023-11-21T02:26:11;18.73;;;8.57;;
79410;SDS011;69635;50.964;6.948;2023-11-21T02:28:36;17.63;;;8.43;;
79410;SDS011;69635;50.964;6.948;2023-11-21T02:31:03;19.27;;;8.90;;
79410;SDS011;69635;50.964;6.948;2023-11-21T02:33:29;18.67;;;8.70;;
79410;SDS011;69635;50.964;6.948;2023-11-21T02:35:55;19.20;;;8.55;;
79410;SDS011;69635;50.964;6.948;2023-11-21T02:38:20;21.30;;;7.80;;
79410;SDS011;69635;50.964;6.948;2023-11-21T02:40:46;21.30;;;7.82;;
79410;SDS011;69635;50.964;6.948;2023-11-21T02:43:11;21.17;;;9.17;;
79410;SDS011;69635;50.964;6.948;2023-11-21T02:45:36;21.35;;;8.35;;
79410;SDS011;69635;50.964;6.948;2023-11-21T02:48:02;18.58;;;8.43;;
79410;SDS011;69635;50.964;6.948;2023-11-21T02:50:27;15.32;;;7.00;;
79410;SDS011;69635;50.964;6.948;2023-11-21T02:52:52;27.80;;;8.50;;
79410;SDS011;69635;50.964;6.948;2023-11-21T02:55:17;22.20;;;8.60;;
79410;SDS011;69635;50.964;6.948;2023-11-21T02:57:43;13.45;;;6.78;;
79410;SDS011;69635;50.964;6.948;2023-11-21T03:00:08;15.60;;;7.67;;
79410;SDS011;69635;50.964;6.948;2023-11-21T03:02:37;16.67;;;7.22;;
79410;SDS011;69635;50.964;6.948;2023-11-21T03:05:04;13.95;;;6.72;;
79410;SDS011;69635;50.964;6.948;2023-11-21T03:07:30;17.77;;;7.43;;
79410;SDS011;69635;50.964;6.948;2023-11-21T03:09:55;18.77;;;6.87;;
79410;SDS011;69635;50.964;6.948;2023-11-21T03:12:20;16.20;;;7.37;;
79410;SDS011;69635;50.964;6.948;2023-11-21T03:14:45;15.03;;;6.90;;
79410;SDS011;69635;50.964;6.948;2023-11-21T03:17:11;15.30;;;7.10;;
79410;SDS011;69635;50.964;6.948;2023-11-21T03:19:36;12.85;;;6.50;;
79410;SDS011;69635;50.964;6.948;2023-11-21T03:22:02;13.98;;;6.75;;
79410;SDS011;69635;50.964;6.948;2023-11-21T03:24:27;13.50;;;6.32;;
79410;SDS011;69635;50.964;6.948;2023-11-21T03:26:52;15.37;;;7.00;;
79410;SDS011;69635;50.964;6.948;2023-11-21T03:29:18;15.68;;;6.80;;
79410;SDS011;69635;50.964;6.948;2023-11-21T03:31:43;16.52;;;8.30;;
79410;SDS011;69635;50.964;6.948;2023-11-21T03:34:15;15.67;;;8.07;;
79410;SDS011;69635;50.964;6.948;2023-11-21T03:36:40;17.73;;;8.18;;
79410;SDS011;69635;50.964;6.948;2023-11-21T03:39:06;16.48;;;7.57;;
79410;SDS011;69635;50.964;6.948;2023-11-21T03:41:32;20.03;;;8.67;;
79410;SDS011;69635;50.964;6.948;2023-11-21T03:43:57;21.93;;;8.93;;
79410;SDS011;69635;50.964;6.948;2023-11-21T03:46:22;22.17;;;8.77;;
79410;SDS011;69635;50.964;6.948;2023-11-21T03:48:47;14.67;;;7.17;;
79410;SDS011;69635;50.964;6.948;2023-11-21T03:51:12;17.27;;;8.23;;
79410;SDS011;69635;50.964;6.948;2023-11-21T03:53:38;19.40;;;8.40;;
79410;SDS011;69635;50.964;6.948;2023-11-21T03:56:03;20.20;;;8.27;;
79410;SDS011;69635;50.964;6.948;2023-11-21T03:58:29;17.85;;;8.57;;
79410;SDS011;69635;50.964;6.948;2023-11-21T04:00:54;18.30;;;8.15;;
79410;SDS011;69635;50.964;6.948;2023-11-21T04:03:19;24.37;;;10.30;;
79410;SDS011;69635;50.964;6.948;2023-11-21T04:05:45;26.03;;;9.03;;
79410;SDS011;69635;50.964;6.948;2023-11-21T04:08:10;20.80;;;8.43;;
79410;SDS011;69635;50.964;6.948;2023-11-21T04:10:36;19.15;;;9.27;;
79410;SDS011;69635;50.964;6.948;2023-11-21T04:13:01;16.80;;;8.03;;
79410;SDS011;69635;50.964;6.948;2023-11-21T04:15:26;21.80;;;9.10;;
79410;SDS011;69635;50.964;6.948;2023-11-21T04:17:52;18.88;;;8.52;;
79410;SDS011;69635;50.964;6.948;2023-11-21T04:20:17;26.60;;;10.18;;
79410;SDS011;69635;50.964;6.948;2023-11-21T04:22:43;21.87;;;9.00;;
79410;SDS011;69635;50.964;6.948;2023-11-21T04:25:09;22.65;;;8.60;;
79410;SDS011;69635;50.964;6.948;2023-11-21T04:27:36;22.77;;;9.43;;
79410;SDS011;69635;50.964;6.948;2023-11-21T04:30:01;18.00;;;9.10;;
79410;SDS011;69635;50.964;6.948;2023-11-21T04:32:26;19.25;;;8.73;;
79410;SDS011;69635;50.964;6.948;2023-11-21T04:34:51;23.30;;;9.87;;
79410;SDS011;69635;50.964;6.948;2023-11-21T04:37:17;21.00;;;8.87;;
79410;SDS011;69635;50.964;6.948;2023-11-21T04:39:42;26.67;;;10.37;;
79410;SDS011;69635;50.964;6.948;2023-11-21T04:42:07;21.83;;;9.80;;
79410;SDS011;69635;50.964;6.948;2023-11-21T04:44:32;25.30;;;9.53;;
79410;SDS011;69635;50.964;6.948;2023-11-21T04:46:58;22.40;;;9.07;;
79410;SDS011;69635;50.964;6.948;2023-11-21T04:49:23;22.67;;;8.70;;
79410;SDS011;69635;50.964;6.948;2023-11-21T04:51:48;26.50;;;9.73;;
79410;SDS011;69635;50.964;6.948;2023-11-21T04:54:13;21.00;;;9.20;;
79410;SDS011;69635;50.964;6.948;2023-11-21T04:56:38;23.80;;;9.97;;
79410;SDS011;69635;50.964;6.948;2023-11-21T04:59:04;28.93;;;9.70;;
79410;SDS011;69635;50.964;6.948;2023-11-21T05:01:29;22.40;;;9.15;;
79410;SDS011;69635;50.964;6.948;2023-11-21T05:03:55;26.67;;;9.77;;
79410;SDS011;69635;50.964;6.948;2023-11-21T05:06:22;25.52;;;8.48;;
79410;SDS011;69635;50.964;6.948;2023-11-21T05:08:47;23.17;;;9.88;;
79410;SDS011;69635;50.964;6.948;2023-11-21T05:11:15;19.83;;;9.48;;
79410;SDS011;69635;50.964;6.948;2023-11-21T05:13:47;24.92;;;10.15;;
79410;SDS011;69635;50.964;6.948;2023-11-21T05:16:13;25.95;;;9.35;;
79410;SDS011;69635;50.964;6.948;2023-11-21T05:18:39;26.45;;;10.95;;
79410;SDS011;69635;50.964;6.948;2023-11-21T05:21:05;26.60;;;10.35;;
79410;SDS011;69635;50.964;6.948;2023-11-21T05:23:30;25.73;;;11.02;;
79410;SDS011;69635;50.964;6.948;2023-11-21T05:25:56;28.77;;;11.47;;
79410;SDS011;69635;50.964;6.948;2023-11-21T05:28:22;24.05;;;9.98;;
79410;SDS011;69635;50.964;6.948;2023-11-21T05:30:47;23.13;;;10.07;;
79410;SDS011;69635;50.964;6.948;2023-11-21T05:33:14;25.35;;;10.80;;
79410;SDS011;69635;50.964;6.948;2023-11-21T05:35:39;29.97;;;10.70;;
79410;SDS011;69635;50.964;6.948;2023-11-21T05:38:04;19.93;;;8.83;;
79410;SDS011;69635;50.964;6.948;2023-11-21T05:40:30;25.33;;;10.05;;
79410;SDS011;69635;50.964;6.948;2023-11-21T05:42:55;23.20;;;10.17;;
79410;SDS011;69635;50.964;6.948;2023-11-21T05:45:21;26.33;;;9.50;;
79410;SDS011;69635;50.964;6.948;2023-11-21T05:47:46;23.98;;;10.50;;
79410;SDS011;69635;50.964;6.948;2023-11-21T05:50:12;19.83;;;9.43;;
79410;SDS011;69635;50.964;6.948;2023-11-21T05:52:39;21.67;;;10.02;;
79410;SDS011;69635;50.964;6.948;2023-11-21T05:55:05;25.77;;;10.52;;
79410;SDS011;69635;50.964;6.948;2023-11-21T05:57:32;22.98;;;10.55;;
79410;SDS011;69635;50.964;6.948;2023-11-21T05:59:58;35.55;;;12.85;;
79410;SDS011;69635;50.964;6.948;2023-11-21T06:02:23;25.73;;;10.85;;
79410;SDS011;69635;50.964;6.948;2023-11-21T06:04:48;30.07;;;10.63;;
79410;SDS011;69635;50.964;6.948;2023-11-21T06:07:13;25.10;;;10.40;;
79410;SDS011;69635;50.964;6.948;2023-11-21T06:09:39;32.20;;;12.20;;
79410;SDS011;69635;50.964;6.948;2023-11-21T06:12:05;28.03;;;10.67;;
79410;SDS011;69635;50.964;6.948;2023-11-21T06:14:30;24.77;;;9.88;;
79410;SDS011;69635;50.964;6.948;2023-11-21T06:16:58;21.58;;;9.85;;
79410;SDS011;69635;50.964;6.948;2023-11-21T06:19:23;26.30;;;11.00;;
79410;SDS011;69635;50.964;6.948;2023-11-21T06:21:48;27.80;;;11.00;;
79410;SDS011;69635;50.964;6.948;2023-11-21T06:24:15;26.15;;;10.23;;
79410;SDS011;69635;50.964;6.948;2023-11-21T06:26:40;23.98;;;9.98;;
79410;SDS011;69635;50.964;6.948;2023-11-21T06:29:06;29.48;;;10.82;;
79410;SDS011;69635;50.964;6.948;2023-11-21T06:31:32;30.95;;;12.98;;
79410;SDS011;69635;50.964;6.948;2023-11-21T06:33:57;27.80;;;10.70;;
79410;SDS011;69635;50.964;6.948;2023-11-21T06:36:24;22.40;;;9.43;;
79410;SDS011;69635;50.964;6.948;2023-11-21T06:38:50;23.60;;;10.07;;
79410;SDS011;69635;50.964;6.948;2023-11-21T06:41:15;24.77;;;9.63;;
79410;SDS011;69635;50.964;6.948;2023-11-21T06:43:40;23.57;;;8.77;;
79410;SDS011;69635;50.964;6.948;2023-11-21T06:46:06;25.77;;;9.80;;
79410;SDS011;69635;50.964;6.948;2023-11-21T06:48:31;19.53;;;7.60;;
79410;SDS011;69635;50.964;6.948;2023-11-21T06:50:56;27.23;;;8.53;;
79410;SDS011;69635;50.964;6.948;2023-11-21T06:53:21;19.63;;;8.40;;
79410;SDS011;69635;50.964;6.948;2023-11-21T06:55:47;22.70;;;8.90;;
79410;SDS011;69635;50.964;6.948;2023-11-21T06:58:12;21.97;;;8.47;;
79410;SDS011;69635;50.964;6.948;2023-11-21T07:00:39;22.15;;;8.43;;
79410;SDS011;69635;50.964;6.948;2023-11-21T07:03:04;20.00;;;8.27;;
79410;SDS011;69635;50.964;6.948;2023-11-21T07:05:30;24.07;;;9.63;;
79410;SDS011;69635;50.964;6.948;2023-11-21T07:07:55;25.38;;;9.25;;
79410;SDS011;69635;50.964;6.948;2023-11-21T07:10:20;23.05;;;9.45;;
79410;SDS011;69635;50.964;6.948;2023-11-21T07:12:46;21.43;;;8.60;;
79410;SDS011;69635;50.964;6.948;2023-11-21T07:15:11;30.13;;;10.13;;
79410;SDS011;69635;50.964;6.948;2023-11-21T07:17:36;26.90;;;9.53;;
79410;SDS011;69635;50.964;6.948;2023-11-21T07:20:02;26.40;;;10.45;;
79410;SDS011;69635;50.964;6.948;2023-11-21T07:22:28;27.55;;;9.38;;
79410;SDS011;69635;50.964;6.948;2023-11-21T07:24:53;25.40;;;10.43;;
79410;SDS011;69635;50.964;6.948;2023-11-21T07:27:18;23.35;;;9.77;;
79410;SDS011;69635;50.964;6.948;2023-11-21T07:29:44;28.45;;;10.27;;
79410;SDS011;69635;50.964;6.948;2023-11-21T07:32:09;21.90;;;8.50;;
79410;SDS011;69635;50.964;6.948;2023-11-21T07:34:35;25.35;;;8.80;;
79410;SDS011;69635;50.964;6.948;2023-11-21T07:37:01;24.52;;;8.85;;
79410;SDS011;69635;50.964;6.948;2023-11-21T07:39:26;22.67;;;8.65;;
79410;SDS011;69635;50.964;6.948;2023-11-21T07:41:51;23.30;;;9.23;;
79410;SDS011;69635;50.964;6.948;2023-11-21T07:44:17;22.97;;;9.13;;
79410;SDS011;69635;50.964;6.948;2023-11-21T07:46:42;24.20;;;9.52;;
79410;SDS011;69635;50.964;6.948;2023-11-21T07:49:07;25.53;;;9.73;;
79410;SDS011;69635;50.964;6.948;2023-11-21T07:51:34;25.60;;;9.30;;
79410;SDS011;69635;50.964;6.948;2023-11-21T07:53:59;25.50;;;9.30;;
79410;SDS011;69635;50.964;6.948;2023-11-21T07:56:24;24.27;;;9.93;;
79410;SDS011;69635;50.964;6.948;2023-11-21T07:58:49;23.17;;;8.60;;
79410;SDS011;69635;50.964;6.948;2023-11-21T08:01:15;20.75;;;8.95;;
79410;SDS011;69635;50.964;6.948;2023-11-21T08:03:40;22.77;;;9.63;;
79410;SDS011;69635;50.964;6.948;2023-11-21T08:06:05;20.85;;;8.73;;
79410;SDS011;69635;50.964;6.948;2023-11-21T08:08:31;26.08;;;10.43;;
79410;SDS011;69635;50.964;6.948;2023-11-21T08:10:57;25.85;;;9.95;;
79410;SDS011;69635;50.964;6.948;2023-11-21T08:13:26;20.00;;;8.33;;
79410;SDS011;69635;50.964;6.948;2023-11-21T08:18:16;28.93;;;9.10;;
79410;SDS011;69635;50.964;6.948;2023-11-21T08:20:42;26.90;;;9.40;;
79410;SDS011;69635;50.964;6.948;2023-11-21T08:23:08;32.60;;;10.30;;
79410;SDS011;69635;50.964;6.948;2023-11-21T08:25:33;24.87;;;9.23;;
79410;SDS011;69635;50.964;6.948;2023-11-21T08:28:00;27.92;;;11.02;;
79410;SDS011;69635;50.964;6.948;2023-11-21T08:30:25;26.92;;;9.65;;
79410;SDS011;69635;50.964;6.948;2023-11-21T08:32:53;22.58;;;8.35;;
79410;SDS011;69635;50.964;6.948;2023-11-21T08:35:18;21.27;;;8.93;;
79410;SDS011;69635;50.964;6.948;2023-11-21T08:37:44;27.70;;;11.00;;
79410;SDS011;69635;50.964;6.948;2023-11-21T08:40:09;24.80;;;10.13;;
79410;SDS011;69635;50.964;6.948;2023-11-21T08:42:37;24.25;;;8.80;;
79410;SDS011;69635;50.964;6.948;2023-11-21T08:45:02;24.92;;;9.35;;
79410;SDS011;69635;50.964;6.948;2023-11-21T08:47:28;23.50;;;9.57;;
79410;SDS011;69635;50.964;6.948;2023-11-21T08:49:53;21.97;;;8.83;;
79410;SDS011;69635;50.964;6.948;2023-11-21T08:52:21;27.00;;;9.43;;
79410;SDS011;69635;50.964;6.948;2023-11-21T08:54:49;25.75;;;9.18;;
79410;SDS011;69635;50.964;6.948;2023-11-21T08:57:21;25.42;;;9.68;;
79410;SDS011;69635;50.964;6.948;2023-11-21T08:59:46;25.42;;;8.93;;
79410;SDS011;69635;50.964;6.948;2023-11-21T09:02:12;28.60;;;9.60;;
79410;SDS011;69635;50.964;6.948;2023-11-21T09:04:37;27.03;;;9.67;;
79410;SDS011;69635;50.964;6.948;2023-11-21T09:07:03;24.95;;;9.55;;
79410;SDS011;69635;50.964;6.948;2023-11-21T09:09:28;28.02;;;9.50;;
79410;SDS011;69635;50.964;6.948;2023-11-21T09:11:54;22.88;;;7.57;;
79410;SDS011;69635;50.964;6.948;2023-11-21T09:14:20;28.40;;;10.65;;
79410;SDS011;69635;50.964;6.948;2023-11-21T09:16:45;25.48;;;9.23;;
79410;SDS011;69635;50.964;6.948;2023-11-21T09:19:10;24.00;;;9.93;;
79410;SDS011;69635;50.964;6.948;2023-11-21T09:21:36;27.25;;;10.32;;
79410;SDS011;69635;50.964;6.948;2023-11-21T09:24:02;25.52;;;10.18;;
79410;SDS011;69635;50.964;6.948;2023-11-21T09:26:28;29.00;;;9.23;;
79410;SDS011;69635;50.964;6.948;2023-11-21T09:28:55;33.50;;;10.07;;
79410;SDS011;69635;50.964;6.948;2023-11-21T09:31:21;34.22;;;11.07;;
79410;SDS011;69635;50.964;6.948;2023-11-21T09:33:47;28.35;;;10.43;;
79410;SDS011;69635;50.964;6.948;2023-11-21T09:36:13;27.92;;;10.77;;
79410;SDS011;69635;50.964;6.948;2023-11-21T09:38:41;29.88;;;10.20;;
79410;SDS011;69635;50.964;6.948;2023-11-21T09:41:11;30.98;;;10.80;;
79410;SDS011;69635;50.964;6.948;2023-11-21T09:43:42;24.50;;;10.40;;
79410;SDS011;69635;50.964;6.948;2023-11-21T09:46:10;32.78;;;11.38;;
79410;SDS011;69635;50.964;6.948;2023-11-21T09:48:38;28.85;;;10.57;;
79410;SDS011;69635;50.964;6.948;2023-11-21T09:51:04;28.42;;;10.18;;
79410;SDS011;69635;50.964;6.948;2023-11-21T09:53:30;29.45;;;10.32;;
79410;SDS011;69635;50.964;6.948;2023-11-21T09:56:03;30.73;;;10.00;;
79410;SDS011;69635;50.964;6.948;2023-11-21T09:58:29;22.00;;;9.43;;
79410;SDS011;69635;50.964;6.948;2023-11-21T10:00:55;24.70;;;10.07;;
79410;SDS011;69635;50.964;6.948;2023-11-21T10:03:34;27.33;;;9.82;;
79410;SDS011;69635;50.964;6.948;2023-11-21T10:06:00;28.08;;;9.52;;
79410;SDS011;69635;50.964;6.948;2023-11-21T10:08:26;25.38;;;9.07;;
79410;SDS011;69635;50.964;6.948;2023-11-21T10:10:53;28.00;;;10.48;;
79410;SDS011;69635;50.964;6.948;2023-11-21T10:13:19;25.85;;;9.93;;
79410;SDS011;69635;50.964;6.948;2023-11-21T10:15:48;35.03;;;12.20;;
79410;SDS011;69635;50.964;6.948;2023-11-21T10:18:14;25.20;;;9.50;;
79410;SDS011;69635;50.964;6.948;2023-11-21T10:20:44;31.40;;;10.57;;
79410;SDS011;69635;50.964;6.948;2023-11-21T10:23:11;30.23;;;9.98;;
79410;SDS011;69635;50.964;6.948;2023-11-21T10:25:38;26.48;;;9.60;;
79410;SDS011;69635;50.964;6.948;2023-11-21T10:28:03;32.03;;;11.10;;
79410;SDS011;69635;50.964;6.948;2023-11-21T10:30:35;26.42;;;11.07;;
79410;SDS011;69635;50.964;6.948;2023-11-21T10:33:06;26.10;;;10.25;;
79410;SDS011;69635;50.964;6.948;2023-11-21T10:35:43;30.30;;;11.05;;
79410;SDS011;69635;50.964;6.948;2023-11-21T10:38:12;29.48;;;10.10;;
79410;SDS011;69635;50.964;6.948;2023-11-21T10:40:38;19.98;;;9.77;;
79410;SDS011;69635;50.964;6.948;2023-11-21T10:43:07;24.38;;;9.18;;
79410;SDS011;69635;50.964;6.948;2023-11-21T10:45:34;29.13;;;9.25;;
79410;SDS011;69635;50.964;6.948;2023-11-21T10:47:59;31.75;;;10.32;;
79410;SDS011;69635;50.964;6.948;2023-11-21T10:50:25;30.83;;;10.97;;
79410;SDS011;69635;50.964;6.948;2023-11-21T10:52:51;24.60;;;9.38;;
79410;SDS011;69635;50.964;6.948;2023-11-21T10:55:16;29.27;;;11.70;;
79410;SDS011;69635;50.964;6.948;2023-11-21T10:57:43;26.88;;;9.00;;
79410;SDS011;69635;50.964;6.948;2023-11-21T11:00:09;20.38;;;8.63;;
79410;SDS011;69635;50.964;6.948;2023-11-21T11:02:38;25.08;;;9.23;;
79410;SDS011;69635;50.964;6.948;2023-11-21T11:05:04;32.50;;;9.93;;
79410;SDS011;69635;50.964;6.948;2023-11-21T11:07:31;29.25;;;11.73;;
79410;SDS011;69635;50.964;6.948;2023-11-21T11:09:59;31.23;;;10.50;;
79410;SDS011;69635;50.964;6.948;2023-11-21T11:12:25;29.38;;;11.43;;
79410;SDS011;69635;50.964;6.948;2023-11-21T11:14:50;11.37;;;5.47;;
79410;SDS011;69635;50.964;6.948;2023-11-21T11:17:16;28.48;;;11.43;;
79410;SDS011;69635;50.964;6.948;2023-11-21T11:19:42;29.25;;;11.40;;
79410;SDS011;69635;50.964;6.948;2023-11-21T11:30:25;22.42;;;9.77;;
79410;SDS011;69635;50.964;6.948;2023-11-21T11:32:40;36.78;;;11.65;;
79410;SDS011;69635;50.964;6.948;2023-11-21T11:37:33;29.10;;;10.17;;
79410;SDS011;69635;50.964;6.948;2023-11-21T11:39:59;29.33;;;9.85;;
79410;SDS011;69635;50.964;6.948;2023-11-21T11:42:24;32.50;;;10.82;;
79410;SDS011;69635;50.964;6.948;2023-11-21T11:44:52;19.85;;;6.80;;
79410;SDS011;69635;50.964;6.948;2023-11-21T11:55:08;29.13;;;10.73;;
79410;SDS011;69635;50.964;6.948;2023-11-21T11:57:37;28.42;;;10.02;;
79410;SDS011;69635;50.964;6.948;2023-11-21T12:00:07;26.50;;;8.88;;
79410;SDS011;69635;50.964;6.948;2023-11-21T12:02:35;34.83;;;11.45;;
79410;SDS011;69635;50.964;6.948;2023-11-21T12:05:06;34.08;;;11.10;;
79410;SDS011;69635;50.964;6.948;2023-11-21T12:07:44;17.58;;;6.32;;
79410;SDS011;69635;50.964;6.948;2023-11-21T12:10:14;31.42;;;11.13;;
79410;SDS011;69635;50.964;6.948;2023-11-21T12:12:43;33.50;;;12.57;;
79410;SDS011;69635;50.964;6.948;2023-11-21T12:15:09;39.45;;;12.40;;
79410;SDS011;69635;50.964;6.948;2023-11-21T12:17:35;38.35;;;13.20;;
79410;SDS011;69635;50.964;6.948;2023-11-21T12:20:01;38.08;;;11.57;;
79410;SDS011;69635;50.964;6.948;2023-11-21T12:22:28;23.63;;;8.07;;
79410;SDS011;69635;50.964;6.948;2023-11-21T12:24:54;36.40;;;12.30;;
79410;SDS011;69635;50.964;6.948;2023-11-21T12:27:20;29.53;;;9.73;;
79410;SDS011;69635;50.964;6.948;2023-11-21T12:29:45;32.40;;;10.77;;
79410;SDS011;69635;50.964;6.948;2023-11-21T12:32:11;32.87;;;11.13;;
79410;SDS011;69635;50.964;6.948;2023-11-21T12:34:36;26.27;;;10.43;;
79410;SDS011;69635;50.964;6.948;2023-11-21T12:37:03;33.83;;;12.13;;
79410;SDS011;69635;50.964;6.948;2023-11-21T12:39:30;19.25;;;7.43;;
79410;SDS011;69635;50.964;6.948;2023-11-21T12:41:55;28.40;;;8.97;;
79410;SDS011;69635;50.964;6.948;2023-11-21T12:44:21;31.92;;;11.05;;
79410;SDS011;69635;50.964;6.948;2023-11-21T12:46:48;21.92;;;6.85;;
79410;SDS011;69635;50.964;6.948;2023-11-21T12:49:14;22.00;;;8.05;;
79410;SDS011;69635;50.964;6.948;2023-11-21T12:51:48;34.15;;;11.30;;
79410;SDS011;69635;50.964;6.948;2023-11-21T12:54:14;27.60;;;9.43;;
79410;SDS011;69635;50.964;6.948;2023-11-21T12:56:40;24.27;;;9.75;;
79410;SDS011;69635;50.964;6.948;2023-11-21T12:59:05;28.77;;;10.00;;
79410;SDS011;69635;50.964;6.948;2023-11-21T13:01:31;27.60;;;9.50;;
79410;SDS011;69635;50.964;6.948;2023-11-21T13:03:57;16.48;;;6.05;;
79410;SDS011;69635;50.964;6.948;2023-11-21T13:06:23;19.02;;;7.25;;
79410;SDS011;69635;50.964;6.948;2023-11-21T13:08:50;27.92;;;9.13;;
79410;SDS011;69635;50.964;6.948;2023-11-21T13:11:16;25.95;;;9.45;;
79410;SDS011;69635;50.964;6.948;2023-11-21T13:13:42;29.65;;;10.38;;
79410;SDS011;69635;50.964;6.948;2023-11-21T13:16:10;24.85;;;9.35;;
79410;SDS011;69635;50.964;6.948;2023-11-21T13:18:36;27.67;;;11.27;;
79410;SDS011;69635;50.964;6.948;2023-11-21T13:21:03;25.73;;;8.90;;
79410;SDS011;69635;50.964;6.948;2023-11-21T13:23:38;35.63;;;13.57;;
79410;SDS011;69635;50.964;6.948;2023-11-21T13:26:03;19.23;;;8.15;;
79410;SDS011;69635;50.964;6.948;2023-11-21T13:28:29;24.67;;;9.80;;
79410;SDS011;69635;50.964;6.948;2023-11-21T13:30:58;11.88;;;5.68;;
79410;SDS011;69635;50.964;6.948;2023-11-21T13:33:27;32.83;;;10.13;;
79410;SDS011;69635;50.964;6.948;2023-11-21T13:35:53;20.38;;;7.95;;
79410;SDS011;69635;50.964;6.948;2023-11-21T13:38:18;22.75;;;9.60;;
79410;SDS011;69635;50.964;6.948;2023-11-21T13:40:48;25.20;;;6.97;;
79410;SDS011;69635;50.964;6.948;2023-11-21T13:43:18;30.10;;;11.00;;
79410;SDS011;69635;50.964;6.948;2023-11-21T13:45:44;30.75;;;10.80;;
79410;SDS011;69635;50.964;6.948;2023-11-21T13:48:10;30.30;;;11.35;;
79410;SDS011;69635;50.964;6.948;2023-11-21T13:53:04;17.75;;;5.30;;
79410;SDS011;69635;50.964;6.948;2023-11-21T13:55:41;32.85;;;10.90;;
79410;SDS011;69635;50.964;6.948;2023-11-21T13:58:06;28.38;;;9.93;;
79410;SDS011;69635;50.964;6.948;2023-11-21T14:00:35;34.97;;;12.45;;
79410;SDS011;69635;50.964;6.948;2023-11-21T14:03:26;28.23;;;11.20;;
79410;SDS011;69635;50.964;6.948;2023-11-21T14:06:04;26.35;;;10.23;;
79410;SDS011;69635;50.964;6.948;2023-11-21T14:08:39;36.03;;;12.23;;
79410;SDS011;69635;50.964;6.948;2023-11-21T14:11:05;30.13;;;10.45;;
79410;SDS011;69635;50.964;6.948;2023-11-21T14:13:31;34.17;;;11.80;;
79410;SDS011;69635;50.964;6.948;2023-11-21T14:15:57;28.02;;;11.95;;
79410;SDS011;69635;50.964;6.948;2023-11-21T14:18:24;33.28;;;11.82;;
79410;SDS011;69635;50.964;6.948;2023-11-21T14:20:59;35.90;;;12.93;;
79410;SDS011;69635;50.964;6.948;2023-11-21T14:23:24;33.58;;;12.05;;
79410;SDS011;69635;50.964;6.948;2023-11-21T14:25:50;39.95;;;12.40;;
79410;SDS011;69635;50.964;6.948;2023-11-21T14:28:16;30.08;;;11.15;;
79410;SDS011;69635;50.964;6.948;2023-11-21T14:30:41;34.97;;;12.73;;
79410;SDS011;69635;50.964;6.948;2023-11-21T14:33:07;35.28;;;11.00;;
79410;SDS011;69635;50.964;6.948;2023-11-21T14:35:33;29.90;;;12.00;;
79410;SDS011;69635;50.964;6.948;2023-11-21T14:37:59;31.00;;;11.35;;
79410;SDS011;69635;50.964;6.948;2023-11-21T14:40:25;39.97;;;12.18;;
79410;SDS011;69635;50.964;6.948;2023-11-21T14:42:52;32.42;;;11.88;;
79410;SDS011;69635;50.964;6.948;2023-11-21T14:45:19;37.75;;;12.75;;
79410;SDS011;69635;50.964;6.948;2023-11-21T14:47:46;31.73;;;10.73;;